<?xml version="1.0" encoding="UTF-8" standalone="no" ?>
<gpx xmlns="http://www.topografix.com/GPX/1/1" xmlns:xsi="http://www.w3.org/2001/XMLSchema-instance" xsi:schemaLocation="http://www.topografix.com/GPX/1/1 http://www.topografix.com/GPX/1/1/gpx.xsd" version="1.1" creator="VisuGPX - https://www.visugpx.com">
  <metadata>
    <name>RIOM-PONTIGAUD</name>
    <desc><![CDATA[JOUR 1]]></desc>
  </metadata>
  <trk>
    <name><![CDATA[RIOM-PONTIGAUD_1]]></name>
    <trkseg>
      <trkpt lat="45.89029" lon="3.11577">
        <ele>343.9</ele>
        <time>2016-12-04T23:48:45Z</time>
      </trkpt>
      <trkpt lat="45.89022" lon="3.11337">
        <ele>346</ele>
        <time>2016-12-04T17:11:25Z</time>
      </trkpt>
      <trkpt lat="45.89044" lon="3.11281">
        <ele>346.6</ele>
        <time>2016-12-04T17:11:45Z</time>
      </trkpt>
      <trkpt lat="45.89053" lon="3.11176">
        <ele>346.1</ele>
        <time>2016-12-04T17:12:05Z</time>
      </trkpt>
      <trkpt lat="45.89098" lon="3.11078">
        <ele>346.6</ele>
        <time>2016-12-04T17:12:25Z</time>
      </trkpt>
      <trkpt lat="45.89095" lon="3.11012">
        <ele>346</ele>
        <time>2016-12-04T17:12:45Z</time>
      </trkpt>
      <trkpt lat="45.89129" lon="3.10986">
        <ele>346.3</ele>
        <time>2016-12-04T17:13:05Z</time>
      </trkpt>
      <trkpt lat="45.88947" lon="3.10784">
        <ele>346.1</ele>
        <time>2016-12-04T17:13:25Z</time>
      </trkpt>
      <trkpt lat="45.88791" lon="3.10518">
        <ele>353.6</ele>
        <time>2016-12-04T17:13:45Z</time>
      </trkpt>
      <trkpt lat="45.88688" lon="3.10276">
        <ele>357.3</ele>
        <time>2016-12-04T17:14:05Z</time>
      </trkpt>
      <trkpt lat="45.88607" lon="3.1008">
        <ele>358.4</ele>
        <time>2016-12-04T17:14:25Z</time>
      </trkpt>
      <trkpt lat="45.88557" lon="3.09875">
        <ele>358.4</ele>
        <time>2016-12-04T17:14:45Z</time>
      </trkpt>
      <trkpt lat="45.88509" lon="3.09481">
        <ele>360.8</ele>
        <time>2016-12-04T17:15:05Z</time>
      </trkpt>
      <trkpt lat="45.88483" lon="3.09394">
        <ele>359.7</ele>
        <time>2016-12-04T17:15:25Z</time>
      </trkpt>
      <trkpt lat="45.88325" lon="3.09056">
        <ele>356.3</ele>
        <time>2016-12-04T17:15:45Z</time>
      </trkpt>
      <trkpt lat="45.8829" lon="3.08989">
        <ele>357.7</ele>
        <time>2016-12-04T17:16:05Z</time>
      </trkpt>
      <trkpt lat="45.88218" lon="3.08939">
        <ele>363.2</ele>
        <time>2016-12-04T17:16:25Z</time>
      </trkpt>
      <trkpt lat="45.8809" lon="3.08901">
        <ele>367.9</ele>
        <time>2016-12-04T17:16:45Z</time>
      </trkpt>
      <trkpt lat="45.88053" lon="3.08866">
        <ele>367.2</ele>
        <time>2016-12-04T17:17:05Z</time>
      </trkpt>
      <trkpt lat="45.88017" lon="3.08796">
        <ele>367</ele>
        <time>2016-12-04T17:17:25Z</time>
      </trkpt>
      <trkpt lat="45.88004" lon="3.08672">
        <ele>368</ele>
        <time>2016-12-04T17:17:45Z</time>
      </trkpt>
      <trkpt lat="45.87982" lon="3.08618">
        <ele>370.4</ele>
        <time>2016-12-04T17:18:05Z</time>
      </trkpt>
      <trkpt lat="45.8786" lon="3.08471">
        <ele>377.8</ele>
        <time>2016-12-04T17:18:25Z</time>
      </trkpt>
      <trkpt lat="45.87784" lon="3.0823">
        <ele>384.7</ele>
        <time>2016-12-04T17:18:45Z</time>
      </trkpt>
      <trkpt lat="45.87725" lon="3.08189">
        <ele>384.2</ele>
        <time>2016-12-04T17:19:05Z</time>
      </trkpt>
      <trkpt lat="45.87776" lon="3.08125">
        <ele>386.2</ele>
        <time>2016-12-04T17:19:25Z</time>
      </trkpt>
      <trkpt lat="45.87827" lon="3.07991">
        <ele>383.7</ele>
        <time>2016-12-04T17:19:45Z</time>
      </trkpt>
      <trkpt lat="45.87901" lon="3.07808">
        <ele>383.5</ele>
        <time>2016-12-04T17:20:05Z</time>
      </trkpt>
      <trkpt lat="45.87902" lon="3.07733">
        <ele>384.9</ele>
        <time>2016-12-04T17:20:25Z</time>
      </trkpt>
      <trkpt lat="45.87687" lon="3.07579">
        <ele>387.9</ele>
        <time>2016-12-04T17:20:45Z</time>
      </trkpt>
      <trkpt lat="45.87625" lon="3.07502">
        <ele>389.2</ele>
        <time>2016-12-04T17:21:05Z</time>
      </trkpt>
      <trkpt lat="45.87498" lon="3.07228">
        <ele>393.9</ele>
        <time>2016-12-04T17:21:25Z</time>
      </trkpt>
      <trkpt lat="45.87446" lon="3.06985">
        <ele>395.7</ele>
        <time>2016-12-04T17:21:45Z</time>
      </trkpt>
      <trkpt lat="45.87392" lon="3.06707">
        <ele>400</ele>
        <time>2016-12-04T17:22:05Z</time>
      </trkpt>
      <trkpt lat="45.87278" lon="3.06578">
        <ele>404.1</ele>
        <time>2016-12-04T17:22:25Z</time>
      </trkpt>
      <trkpt lat="45.87177" lon="3.06448">
        <ele>407.3</ele>
        <time>2016-12-04T17:22:45Z</time>
      </trkpt>
      <trkpt lat="45.87134" lon="3.06164">
        <ele>423</ele>
        <time>2016-12-04T17:23:05Z</time>
      </trkpt>
      <trkpt lat="45.8707" lon="3.05939">
        <ele>422</ele>
        <time>2016-12-04T17:23:25Z</time>
      </trkpt>
      <trkpt lat="45.87125" lon="3.05852">
        <ele>434.9</ele>
        <time>2016-12-04T17:23:45Z</time>
      </trkpt>
      <trkpt lat="45.87191" lon="3.05779">
        <ele>443.2</ele>
        <time>2016-12-04T17:24:05Z</time>
      </trkpt>
      <trkpt lat="45.87218" lon="3.05693">
        <ele>445.3</ele>
        <time>2016-12-04T17:24:25Z</time>
      </trkpt>
      <trkpt lat="45.8728" lon="3.05662">
        <ele>452.3</ele>
        <time>2016-12-04T17:24:45Z</time>
      </trkpt>
      <trkpt lat="45.87315" lon="3.05604">
        <ele>454</ele>
        <time>2016-12-04T17:25:05Z</time>
      </trkpt>
      <trkpt lat="45.87375" lon="3.05564">
        <ele>458.4</ele>
        <time>2016-12-04T17:25:25Z</time>
      </trkpt>
      <trkpt lat="45.87542" lon="3.05295">
        <ele>462.7</ele>
        <time>2016-12-04T17:25:45Z</time>
      </trkpt>
      <trkpt lat="45.8758" lon="3.05181">
        <ele>464.3</ele>
        <time>2016-12-04T17:26:05Z</time>
      </trkpt>
      <trkpt lat="45.87614" lon="3.04928">
        <ele>467.7</ele>
        <time>2016-12-04T17:26:25Z</time>
      </trkpt>
      <trkpt lat="45.87613" lon="3.04829">
        <ele>471.7</ele>
        <time>2016-12-04T17:26:45Z</time>
      </trkpt>
      <trkpt lat="45.87566" lon="3.0466">
        <ele>473.5</ele>
        <time>2016-12-04T17:27:05Z</time>
      </trkpt>
      <trkpt lat="45.87532" lon="3.04463">
        <ele>478.7</ele>
        <time>2016-12-04T17:27:25Z</time>
      </trkpt>
      <trkpt lat="45.87497" lon="3.04168">
        <ele>491.2</ele>
        <time>2016-12-04T17:27:45Z</time>
      </trkpt>
      <trkpt lat="45.87467" lon="3.04074">
        <ele>497.2</ele>
        <time>2016-12-04T17:28:05Z</time>
      </trkpt>
      <trkpt lat="45.8739" lon="3.03958">
        <ele>501.6</ele>
        <time>2016-12-04T17:28:25Z</time>
      </trkpt>
      <trkpt lat="45.87324" lon="3.03816">
        <ele>511.5</ele>
        <time>2016-12-04T17:28:45Z</time>
      </trkpt>
      <trkpt lat="45.87359" lon="3.03767">
        <ele>520.7</ele>
        <time>2016-12-04T17:29:05Z</time>
      </trkpt>
      <trkpt lat="45.87311" lon="3.03647">
        <ele>528.1</ele>
        <time>2016-12-04T17:29:25Z</time>
      </trkpt>
      <trkpt lat="45.87246" lon="3.0356">
        <ele>534.1</ele>
        <time>2016-12-04T17:29:45Z</time>
      </trkpt>
      <trkpt lat="45.87195" lon="3.03527">
        <ele>538.1</ele>
        <time>2016-12-04T17:30:05Z</time>
      </trkpt>
      <trkpt lat="45.87216" lon="3.03428">
        <ele>554.6</ele>
        <time>2016-12-04T17:30:25Z</time>
      </trkpt>
      <trkpt lat="45.87215" lon="3.03399">
        <ele>558.9</ele>
        <time>2016-12-04T17:30:45Z</time>
      </trkpt>
      <trkpt lat="45.87193" lon="3.03385">
        <ele>557.2</ele>
        <time>2016-12-04T17:31:05Z</time>
      </trkpt>
      <trkpt lat="45.87172" lon="3.03354">
        <ele>556.2</ele>
        <time>2016-12-04T17:31:25Z</time>
      </trkpt>
      <trkpt lat="45.87195" lon="3.03311">
        <ele>558.7</ele>
        <time>2016-12-04T17:31:45Z</time>
      </trkpt>
      <trkpt lat="45.87206" lon="3.03269">
        <ele>559.7</ele>
        <time>2016-12-04T17:32:05Z</time>
      </trkpt>
      <trkpt lat="45.87195" lon="3.03188">
        <ele>560.9</ele>
        <time>2016-12-04T17:32:25Z</time>
      </trkpt>
      <trkpt lat="45.87173" lon="3.03153">
        <ele>561.8</ele>
        <time>2016-12-04T17:32:45Z</time>
      </trkpt>
      <trkpt lat="45.87124" lon="3.03125">
        <ele>562.2</ele>
        <time>2016-12-04T17:33:05Z</time>
      </trkpt>
      <trkpt lat="45.87072" lon="3.03122">
        <ele>561.9</ele>
        <time>2016-12-04T17:33:25Z</time>
      </trkpt>
      <trkpt lat="45.87024" lon="3.03096">
        <ele>561.6</ele>
        <time>2016-12-04T17:33:45Z</time>
      </trkpt>
      <trkpt lat="45.87093" lon="3.02864">
        <ele>573.6</ele>
        <time>2016-12-04T17:34:05Z</time>
      </trkpt>
      <trkpt lat="45.87114" lon="3.02763">
        <ele>578.7</ele>
        <time>2016-12-04T17:34:25Z</time>
      </trkpt>
      <trkpt lat="45.87152" lon="3.02632">
        <ele>594.2</ele>
        <time>2016-12-04T17:34:45Z</time>
      </trkpt>
      <trkpt lat="45.87147" lon="3.02511">
        <ele>604</ele>
        <time>2016-12-04T17:35:05Z</time>
      </trkpt>
      <trkpt lat="45.87154" lon="3.02455">
        <ele>610.5</ele>
        <time>2016-12-04T17:35:25Z</time>
      </trkpt>
      <trkpt lat="45.87218" lon="3.0236">
        <ele>614.4</ele>
        <time>2016-12-04T17:35:45Z</time>
      </trkpt>
      <trkpt lat="45.87241" lon="3.02307">
        <ele>617.8</ele>
        <time>2016-12-04T17:36:05Z</time>
      </trkpt>
      <trkpt lat="45.87227" lon="3.02176">
        <ele>620.3</ele>
        <time>2016-12-04T17:36:25Z</time>
      </trkpt>
      <trkpt lat="45.87209" lon="3.02016">
        <ele>623.1</ele>
        <time>2016-12-04T17:36:45Z</time>
      </trkpt>
      <trkpt lat="45.87175" lon="3.01997">
        <ele>626.5</ele>
        <time>2016-12-04T17:37:05Z</time>
      </trkpt>
      <trkpt lat="45.87122" lon="3.01894">
        <ele>635.6</ele>
        <time>2016-12-04T17:37:25Z</time>
      </trkpt>
      <trkpt lat="45.8712" lon="3.01788">
        <ele>641.6</ele>
        <time>2016-12-04T17:37:45Z</time>
      </trkpt>
      <trkpt lat="45.8715" lon="3.01676">
        <ele>650</ele>
        <time>2016-12-04T17:38:05Z</time>
      </trkpt>
      <trkpt lat="45.87227" lon="3.01577">
        <ele>658.8</ele>
        <time>2016-12-04T17:38:25Z</time>
      </trkpt>
      <trkpt lat="45.87241" lon="3.01439">
        <ele>661</ele>
        <time>2016-12-04T17:38:45Z</time>
      </trkpt>
      <trkpt lat="45.87217" lon="3.01341">
        <ele>662.2</ele>
        <time>2016-12-04T17:39:05Z</time>
      </trkpt>
      <trkpt lat="45.87197" lon="3.012">
        <ele>667.6</ele>
        <time>2016-12-04T17:39:25Z</time>
      </trkpt>
      <trkpt lat="45.87159" lon="3.01086">
        <ele>673</ele>
        <time>2016-12-04T17:39:45Z</time>
      </trkpt>
      <trkpt lat="45.87126" lon="3.00812">
        <ele>688.2</ele>
        <time>2016-12-04T17:40:05Z</time>
      </trkpt>
      <trkpt lat="45.87115" lon="3.00772">
        <ele>689.3</ele>
        <time>2016-12-04T17:40:25Z</time>
      </trkpt>
      <trkpt lat="45.87054" lon="3.00757">
        <ele>692.8</ele>
        <time>2016-12-04T17:40:45Z</time>
      </trkpt>
      <trkpt lat="45.87028" lon="3.00756">
        <ele>694.6</ele>
        <time>2016-12-04T17:41:05Z</time>
      </trkpt>
      <trkpt lat="45.86994" lon="3.00769">
        <ele>698.1</ele>
        <time>2016-12-04T17:41:25Z</time>
      </trkpt>
      <trkpt lat="45.86936" lon="3.00749">
        <ele>702.2</ele>
        <time>2016-12-04T17:41:45Z</time>
      </trkpt>
      <trkpt lat="45.86911" lon="3.00734">
        <ele>704.5</ele>
        <time>2016-12-04T17:42:05Z</time>
      </trkpt>
      <trkpt lat="45.86881" lon="3.00762">
        <ele>702.3</ele>
        <time>2016-12-04T17:42:25Z</time>
      </trkpt>
      <trkpt lat="45.86653" lon="3.00584">
        <ele>735.8</ele>
        <time>2016-12-04T17:42:45Z</time>
      </trkpt>
      <trkpt lat="45.86401" lon="3.00411">
        <ele>761.3</ele>
        <time>2016-12-04T17:43:05Z</time>
      </trkpt>
      <trkpt lat="45.86446" lon="3.00294">
        <ele>761.2</ele>
        <time>2016-12-04T17:43:25Z</time>
      </trkpt>
      <trkpt lat="45.86342" lon="3.00226">
        <ele>768.5</ele>
        <time>2016-12-04T17:43:45Z</time>
      </trkpt>
      <trkpt lat="45.86261" lon="3.00105">
        <ele>781.4</ele>
        <time>2016-12-04T17:44:05Z</time>
      </trkpt>
      <trkpt lat="45.86277" lon="2.99904">
        <ele>812.3</ele>
        <time>2016-12-04T17:44:25Z</time>
      </trkpt>
      <trkpt lat="45.86317" lon="2.99735">
        <ele>852.9</ele>
        <time>2016-12-04T17:44:45Z</time>
      </trkpt>
      <trkpt lat="45.8639" lon="2.99715">
        <ele>855.5</ele>
        <time>2016-12-04T17:45:05Z</time>
      </trkpt>
      <trkpt lat="45.86455" lon="2.99663">
        <ele>864.9</ele>
        <time>2016-12-04T17:45:25Z</time>
      </trkpt>
      <trkpt lat="45.86508" lon="2.99481">
        <ele>869.4</ele>
        <time>2016-12-04T17:45:45Z</time>
      </trkpt>
      <trkpt lat="45.86399" lon="2.99494">
        <ele>871.9</ele>
        <time>2016-12-04T17:46:05Z</time>
      </trkpt>
      <trkpt lat="45.86369" lon="2.99422">
        <ele>872.3</ele>
        <time>2016-12-04T17:46:25Z</time>
      </trkpt>
      <trkpt lat="45.86236" lon="2.99253">
        <ele>877.5</ele>
        <time>2016-12-04T17:46:45Z</time>
      </trkpt>
      <trkpt lat="45.86181" lon="2.99201">
        <ele>880.6</ele>
        <time>2016-12-04T17:47:05Z</time>
      </trkpt>
      <trkpt lat="45.86159" lon="2.98873">
        <ele>922.4</ele>
        <time>2016-12-04T17:47:25Z</time>
      </trkpt>
      <trkpt lat="45.86123" lon="2.98837">
        <ele>925</ele>
        <time>2016-12-04T17:47:45Z</time>
      </trkpt>
      <trkpt lat="45.86211" lon="2.98791">
        <ele>928.8</ele>
        <time>2016-12-04T17:48:05Z</time>
      </trkpt>
      <trkpt lat="45.86238" lon="2.98743">
        <ele>931.8</ele>
        <time>2016-12-04T17:48:25Z</time>
      </trkpt>
      <trkpt lat="45.86222" lon="2.98655">
        <ele>936.5</ele>
        <time>2016-12-04T17:48:45Z</time>
      </trkpt>
      <trkpt lat="45.86218" lon="2.98638">
        <ele>937</ele>
        <time>2016-12-04T17:49:05Z</time>
      </trkpt>
      <trkpt lat="45.86142" lon="2.98564">
        <ele>935</ele>
        <time>2016-12-04T17:49:25Z</time>
      </trkpt>
      <trkpt lat="45.86083" lon="2.98543">
        <ele>935</ele>
        <time>2016-12-04T17:49:45Z</time>
      </trkpt>
      <trkpt lat="45.86029" lon="2.98549">
        <ele>937</ele>
        <time>2016-12-04T17:50:05Z</time>
      </trkpt>
      <trkpt lat="45.85989" lon="2.98632">
        <ele>945</ele>
        <time>2016-12-04T17:50:25Z</time>
      </trkpt>
      <trkpt lat="45.85953" lon="2.98698">
        <ele>951</ele>
        <time>2016-12-04T17:50:45Z</time>
      </trkpt>
      <trkpt lat="45.85936" lon="2.98696">
        <ele>952</ele>
        <time>2016-12-04T17:51:05Z</time>
      </trkpt>
      <trkpt lat="45.8591" lon="2.98586">
        <ele>955</ele>
        <time>2016-12-04T17:51:25Z</time>
      </trkpt>
      <trkpt lat="45.85879" lon="2.98431">
        <ele>962</ele>
        <time>2016-12-04T17:51:45Z</time>
      </trkpt>
      <trkpt lat="45.85845" lon="2.98396">
        <ele>956</ele>
        <time>2016-12-04T17:52:05Z</time>
      </trkpt>
      <trkpt lat="45.85803" lon="2.98319">
        <ele>935</ele>
        <time>2016-12-04T17:52:25Z</time>
      </trkpt>
      <trkpt lat="45.85797" lon="2.98238">
        <ele>927</ele>
        <time>2016-12-04T17:52:45Z</time>
      </trkpt>
      <trkpt lat="45.85815" lon="2.98201">
        <ele>927</ele>
        <time>2016-12-04T17:53:05Z</time>
      </trkpt>
      <trkpt lat="45.8587" lon="2.98134">
        <ele>926</ele>
        <time>2016-12-04T17:53:25Z</time>
      </trkpt>
      <trkpt lat="45.85868" lon="2.98097">
        <ele>923</ele>
        <time>2016-12-04T17:53:45Z</time>
      </trkpt>
      <trkpt lat="45.85836" lon="2.98048">
        <ele>907</ele>
        <time>2016-12-04T17:54:05Z</time>
      </trkpt>
      <trkpt lat="45.85777" lon="2.98021">
        <ele>898</ele>
        <time>2016-12-04T17:54:25Z</time>
      </trkpt>
      <trkpt lat="45.85737" lon="2.98031">
        <ele>893</ele>
        <time>2016-12-04T17:54:45Z</time>
      </trkpt>
      <trkpt lat="45.8566" lon="2.98109">
        <ele>887</ele>
        <time>2016-12-04T17:55:05Z</time>
      </trkpt>
      <trkpt lat="45.8566" lon="2.98061">
        <ele>889</ele>
        <time>2016-12-04T17:55:25Z</time>
      </trkpt>
      <trkpt lat="45.85625" lon="2.97955">
        <ele>893</ele>
        <time>2016-12-04T17:55:45Z</time>
      </trkpt>
      <trkpt lat="45.85554" lon="2.97885">
        <ele>905</ele>
        <time>2016-12-04T17:56:05Z</time>
      </trkpt>
      <trkpt lat="45.85461" lon="2.97818">
        <ele>914</ele>
        <time>2016-12-04T17:56:25Z</time>
      </trkpt>
      <trkpt lat="45.85371" lon="2.97792">
        <ele>920</ele>
        <time>2016-12-04T17:56:45Z</time>
      </trkpt>
      <trkpt lat="45.85324" lon="2.97696">
        <ele>930</ele>
        <time>2016-12-04T17:57:05Z</time>
      </trkpt>
      <trkpt lat="45.85257" lon="2.9761">
        <ele>939</ele>
        <time>2016-12-04T17:57:25Z</time>
      </trkpt>
      <trkpt lat="45.85135" lon="2.97388">
        <ele>982</ele>
        <time>2016-12-04T17:57:45Z</time>
      </trkpt>
      <trkpt lat="45.85085" lon="2.97349">
        <ele>987</ele>
        <time>2016-12-04T17:58:05Z</time>
      </trkpt>
      <trkpt lat="45.85157" lon="2.97242">
        <ele>1003</ele>
        <time>2016-12-04T17:58:25Z</time>
      </trkpt>
      <trkpt lat="45.85167" lon="2.97211">
        <ele>1003</ele>
        <time>2016-12-04T17:58:45Z</time>
      </trkpt>
      <trkpt lat="45.85211" lon="2.97134">
        <ele>1006</ele>
        <time>2016-12-04T17:59:05Z</time>
      </trkpt>
      <trkpt lat="45.85221" lon="2.97081">
        <ele>1009</ele>
        <time>2016-12-04T22:35:25Z</time>
      </trkpt>
      <trkpt lat="45.85246" lon="2.97016">
        <ele>1010</ele>
        <time>2016-12-04T22:35:45Z</time>
      </trkpt>
      <trkpt lat="45.85249" lon="2.96904">
        <ele>1017</ele>
        <time>2017-03-24T16:49:35Z</time>
      </trkpt>
      <trkpt lat="45.85233" lon="2.9684">
        <ele>1019</ele>
        <time>2017-03-24T16:49:15Z</time>
      </trkpt>
      <trkpt lat="45.85245" lon="2.96778">
        <ele>1023</ele>
        <time>2017-03-24T16:48:55Z</time>
      </trkpt>
      <trkpt lat="45.85283" lon="2.96717">
        <ele>1016</ele>
        <time>2017-03-24T16:48:35Z</time>
      </trkpt>
      <trkpt lat="45.85294" lon="2.96667">
        <ele>1016</ele>
        <time>2017-03-24T16:48:15Z</time>
      </trkpt>
      <trkpt lat="45.85254" lon="2.96575">
        <ele>1024</ele>
        <time>2017-03-24T16:47:55Z</time>
      </trkpt>
      <trkpt lat="45.85218" lon="2.96467">
        <ele>1036</ele>
        <time>2017-03-24T16:47:35Z</time>
      </trkpt>
      <trkpt lat="45.85162" lon="2.96399">
        <ele>1039</ele>
        <time>2017-03-24T16:47:15Z</time>
      </trkpt>
      <trkpt lat="45.85109" lon="2.96582">
        <ele>1061</ele>
        <time>2017-03-24T16:46:55Z</time>
      </trkpt>
      <trkpt lat="45.85054" lon="2.96654">
        <ele>1082</ele>
        <time>2017-03-24T16:46:35Z</time>
      </trkpt>
      <trkpt lat="45.84917" lon="2.96751">
        <ele>1114</ele>
        <time>2017-03-24T16:46:15Z</time>
      </trkpt>
      <trkpt lat="45.84888" lon="2.96821">
        <ele>1120</ele>
        <time>2017-03-24T16:45:55Z</time>
      </trkpt>
      <trkpt lat="45.84845" lon="2.96875">
        <ele>1127</ele>
        <time>2017-03-24T16:45:35Z</time>
      </trkpt>
      <trkpt lat="45.84788" lon="2.96879">
        <ele>1137</ele>
        <time>2017-03-24T16:45:15Z</time>
      </trkpt>
      <trkpt lat="45.84742" lon="2.9685">
        <ele>1137</ele>
        <time>2017-03-24T16:44:55Z</time>
      </trkpt>
      <trkpt lat="45.84696" lon="2.96787">
        <ele>1139</ele>
        <time>2017-03-24T16:44:35Z</time>
      </trkpt>
      <trkpt lat="45.84663" lon="2.96672">
        <ele>1148</ele>
        <time>2017-03-24T16:44:15Z</time>
      </trkpt>
      <trkpt lat="45.84605" lon="2.96641">
        <ele>1141</ele>
        <time>2017-03-24T16:43:55Z</time>
      </trkpt>
      <trkpt lat="45.8459" lon="2.96589">
        <ele>1137</ele>
        <time>2017-03-24T16:43:35Z</time>
      </trkpt>
      <trkpt lat="45.84571" lon="2.96583">
        <ele>1131</ele>
        <time>2017-03-24T16:43:15Z</time>
      </trkpt>
      <trkpt lat="45.84536" lon="2.96548">
        <ele>1127</ele>
        <time>2017-03-24T16:42:55Z</time>
      </trkpt>
      <trkpt lat="45.84521" lon="2.96552">
        <ele>1127</ele>
        <time>2017-03-24T16:42:35Z</time>
      </trkpt>
      <trkpt lat="45.84479" lon="2.9653">
        <ele>1131</ele>
        <time>2017-03-24T16:42:15Z</time>
      </trkpt>
      <trkpt lat="45.84464" lon="2.96471">
        <ele>1128</ele>
        <time>2017-03-24T16:41:55Z</time>
      </trkpt>
      <trkpt lat="45.84432" lon="2.96439">
        <ele>1129</ele>
        <time>2017-03-24T16:41:35Z</time>
      </trkpt>
      <trkpt lat="45.8439" lon="2.96459">
        <ele>1135</ele>
        <time>2017-03-24T16:41:15Z</time>
      </trkpt>
      <trkpt lat="45.84392" lon="2.96492">
        <ele>1137</ele>
        <time>2017-03-24T16:40:55Z</time>
      </trkpt>
      <trkpt lat="45.84377" lon="2.96511">
        <ele>1137</ele>
        <time>2017-03-24T16:40:35Z</time>
      </trkpt>
      <trkpt lat="45.84342" lon="2.96517">
        <ele>1137</ele>
        <time>2017-03-24T16:40:15Z</time>
      </trkpt>
      <trkpt lat="45.84295" lon="2.96491">
        <ele>1133</ele>
        <time>2017-03-24T16:39:55Z</time>
      </trkpt>
      <trkpt lat="45.8425" lon="2.96444">
        <ele>1129</ele>
        <time>2017-03-24T16:39:35Z</time>
      </trkpt>
      <trkpt lat="45.84193" lon="2.96362">
        <ele>1136</ele>
        <time>2017-03-24T16:39:15Z</time>
      </trkpt>
      <trkpt lat="45.84118" lon="2.96301">
        <ele>1126</ele>
        <time>2017-03-24T16:38:55Z</time>
      </trkpt>
      <trkpt lat="45.84067" lon="2.96244">
        <ele>1107</ele>
        <time>2017-03-24T16:38:35Z</time>
      </trkpt>
      <trkpt lat="45.83974" lon="2.96217">
        <ele>1092</ele>
        <time>2017-03-24T16:38:15Z</time>
      </trkpt>
      <trkpt lat="45.83952" lon="2.96203">
        <ele>1090</ele>
        <time>2017-03-24T16:37:55Z</time>
      </trkpt>
      <trkpt lat="45.83897" lon="2.96225">
        <ele>1082</ele>
        <time>2017-03-24T16:37:35Z</time>
      </trkpt>
      <trkpt lat="45.83814" lon="2.96229">
        <ele>1068</ele>
        <time>2017-03-24T16:37:15Z</time>
      </trkpt>
      <trkpt lat="45.83744" lon="2.96208">
        <ele>1047</ele>
        <time>2017-03-24T16:36:55Z</time>
      </trkpt>
      <trkpt lat="45.83725" lon="2.96023">
        <ele>1037</ele>
        <time>2017-03-24T16:36:35Z</time>
      </trkpt>
      <trkpt lat="45.83669" lon="2.95962">
        <ele>1031</ele>
        <time>2017-03-24T16:36:15Z</time>
      </trkpt>
      <trkpt lat="45.83686" lon="2.95923">
        <ele>1029</ele>
        <time>2017-03-24T16:35:55Z</time>
      </trkpt>
      <trkpt lat="45.83658" lon="2.95913">
        <ele>1030</ele>
        <time>2017-03-24T16:35:35Z</time>
      </trkpt>
      <trkpt lat="45.83599" lon="2.95905">
        <ele>1034</ele>
        <time>2017-03-24T16:35:15Z</time>
      </trkpt>
      <trkpt lat="45.83555" lon="2.9587">
        <ele>1042</ele>
        <time>2017-03-24T16:34:55Z</time>
      </trkpt>
      <trkpt lat="45.8361" lon="2.95766">
        <ele>1041</ele>
        <time>2017-03-24T16:34:35Z</time>
      </trkpt>
      <trkpt lat="45.83681" lon="2.95604">
        <ele>1032</ele>
        <time>2017-03-24T16:33:35Z</time>
      </trkpt>
      <trkpt lat="45.83656" lon="2.95543">
        <ele>1037</ele>
        <time>2017-03-24T16:33:15Z</time>
      </trkpt>
      <trkpt lat="45.83594" lon="2.95525">
        <ele>1040</ele>
        <time>2017-03-24T16:32:55Z</time>
      </trkpt>
      <trkpt lat="45.83508" lon="2.95464">
        <ele>1034</ele>
        <time>2017-03-24T16:32:35Z</time>
      </trkpt>
      <trkpt lat="45.83431" lon="2.9543">
        <ele>1035</ele>
        <time>2017-03-24T16:32:15Z</time>
      </trkpt>
      <trkpt lat="45.83406" lon="2.95395">
        <ele>1026</ele>
        <time>2017-03-24T16:31:55Z</time>
      </trkpt>
      <trkpt lat="45.83219" lon="2.95436">
        <ele>1028</ele>
        <time>2017-03-24T16:31:35Z</time>
      </trkpt>
      <trkpt lat="45.83164" lon="2.95435">
        <ele>1028</ele>
        <time>2017-03-24T16:31:15Z</time>
      </trkpt>
      <trkpt lat="45.83118" lon="2.95522">
        <ele>1035</ele>
        <time>2017-03-24T16:30:55Z</time>
      </trkpt>
      <trkpt lat="45.83106" lon="2.95428">
        <ele>1032</ele>
        <time>2017-03-24T16:30:35Z</time>
      </trkpt>
      <trkpt lat="45.8308" lon="2.95372">
        <ele>1039</ele>
        <time>2017-03-24T16:30:15Z</time>
      </trkpt>
      <trkpt lat="45.83044" lon="2.95258">
        <ele>1031</ele>
        <time>2017-03-24T16:29:55Z</time>
      </trkpt>
      <trkpt lat="45.83027" lon="2.95173">
        <ele>1028</ele>
        <time>2017-03-24T16:29:35Z</time>
      </trkpt>
      <trkpt lat="45.83" lon="2.95088">
        <ele>1023</ele>
        <time>2017-03-24T16:29:15Z</time>
      </trkpt>
      <trkpt lat="45.82984" lon="2.95064">
        <ele>1026</ele>
        <time>2017-03-24T16:28:55Z</time>
      </trkpt>
      <trkpt lat="45.82946" lon="2.95074">
        <ele>1031</ele>
        <time>2017-03-24T16:28:35Z</time>
      </trkpt>
      <trkpt lat="45.82879" lon="2.95125">
        <ele>1049</ele>
        <time>2017-03-24T16:28:15Z</time>
      </trkpt>
      <trkpt lat="45.82798" lon="2.95132">
        <ele>1065</ele>
        <time>2017-03-24T16:27:55Z</time>
      </trkpt>
      <trkpt lat="45.82715" lon="2.95188">
        <ele>1075</ele>
        <time>2017-03-24T16:27:35Z</time>
      </trkpt>
      <trkpt lat="45.82655" lon="2.95216">
        <ele>1083</ele>
        <time>2017-03-24T16:27:15Z</time>
      </trkpt>
      <trkpt lat="45.82606" lon="2.95194">
        <ele>1086</ele>
        <time>2017-03-24T16:26:55Z</time>
      </trkpt>
      <trkpt lat="45.82572" lon="2.9516">
        <ele>1091</ele>
        <time>2017-03-24T16:26:35Z</time>
      </trkpt>
      <trkpt lat="45.82528" lon="2.95139">
        <ele>1092</ele>
        <time>2017-03-24T16:26:15Z</time>
      </trkpt>
      <trkpt lat="45.82475" lon="2.95129">
        <ele>1096</ele>
        <time>2017-03-24T16:25:55Z</time>
      </trkpt>
      <trkpt lat="45.8246" lon="2.95093">
        <ele>1097</ele>
        <time>2017-03-24T16:25:35Z</time>
      </trkpt>
      <trkpt lat="45.82428" lon="2.95085">
        <ele>1099</ele>
        <time>2017-03-24T16:25:15Z</time>
      </trkpt>
      <trkpt lat="45.82404" lon="2.95022">
        <ele>1091</ele>
        <time>2017-03-24T16:24:55Z</time>
      </trkpt>
      <trkpt lat="45.82381" lon="2.95041">
        <ele>1089</ele>
        <time>2017-03-24T16:24:35Z</time>
      </trkpt>
      <trkpt lat="45.82372" lon="2.95098">
        <ele>1093</ele>
        <time>2017-03-24T16:24:15Z</time>
      </trkpt>
      <trkpt lat="45.82383" lon="2.95155">
        <ele>1096</ele>
        <time>2017-03-24T16:23:55Z</time>
      </trkpt>
      <trkpt lat="45.82386" lon="2.95215">
        <ele>1099</ele>
        <time>2017-03-24T16:23:35Z</time>
      </trkpt>
      <trkpt lat="45.82406" lon="2.95304">
        <ele>1103</ele>
        <time>2017-03-24T16:23:15Z</time>
      </trkpt>
      <trkpt lat="45.82469" lon="2.95404">
        <ele>1114</ele>
        <time>2017-03-24T16:22:55Z</time>
      </trkpt>
      <trkpt lat="45.82472" lon="2.95459">
        <ele>1110</ele>
        <time>2017-03-24T16:22:35Z</time>
      </trkpt>
      <trkpt lat="45.82488" lon="2.95554">
        <ele>1102</ele>
        <time>2017-03-24T16:22:15Z</time>
      </trkpt>
      <trkpt lat="45.82491" lon="2.95608">
        <ele>1093</ele>
        <time>2017-03-24T16:21:55Z</time>
      </trkpt>
      <trkpt lat="45.82515" lon="2.9569">
        <ele>1082</ele>
        <time>2017-03-24T16:21:35Z</time>
      </trkpt>
      <trkpt lat="45.82534" lon="2.95717">
        <ele>1078</ele>
        <time>2017-03-24T16:21:15Z</time>
      </trkpt>
      <trkpt lat="45.82543" lon="2.95757">
        <ele>1067</ele>
        <time>2017-03-24T16:20:55Z</time>
      </trkpt>
      <trkpt lat="45.82556" lon="2.95791">
        <ele>1065</ele>
        <time>2017-03-24T16:20:35Z</time>
      </trkpt>
      <trkpt lat="45.82503" lon="2.95849">
        <ele>1051</ele>
        <time>2017-03-24T16:20:15Z</time>
      </trkpt>
      <trkpt lat="45.82481" lon="2.95937">
        <ele>1028</ele>
        <time>2017-03-24T16:19:55Z</time>
      </trkpt>
      <trkpt lat="45.82464" lon="2.95972">
        <ele>1023</ele>
        <time>2017-03-24T16:19:35Z</time>
      </trkpt>
      <trkpt lat="45.82441" lon="2.95991">
        <ele>1020</ele>
        <time>2017-03-24T16:19:15Z</time>
      </trkpt>
      <trkpt lat="45.82431" lon="2.96011">
        <ele>1012</ele>
        <time>2017-03-24T16:18:55Z</time>
      </trkpt>
      <trkpt lat="45.82388" lon="2.96028">
        <ele>1002</ele>
        <time>2017-03-24T16:18:35Z</time>
      </trkpt>
      <trkpt lat="45.82386" lon="2.96068">
        <ele>999</ele>
        <time>2017-03-24T16:18:15Z</time>
      </trkpt>
      <trkpt lat="45.82443" lon="2.96136">
        <ele>994</ele>
        <time>2017-03-24T16:17:55Z</time>
      </trkpt>
      <trkpt lat="45.82453" lon="2.9614">
        <ele>995</ele>
        <time>2017-03-24T16:17:35Z</time>
      </trkpt>
      <trkpt lat="45.8248" lon="2.96165">
        <ele>993</ele>
        <time>2017-03-24T16:17:15Z</time>
      </trkpt>
      <trkpt lat="45.82476" lon="2.96194">
        <ele>984</ele>
        <time>2017-03-24T16:16:55Z</time>
      </trkpt>
      <trkpt lat="45.82476" lon="2.96294">
        <ele>978</ele>
        <time>2017-03-24T16:16:35Z</time>
      </trkpt>
      <trkpt lat="45.82444" lon="2.96317">
        <ele>979</ele>
        <time>2017-03-24T16:16:15Z</time>
      </trkpt>
      <trkpt lat="45.82374" lon="2.96313">
        <ele>980</ele>
        <time>2017-03-24T16:15:55Z</time>
      </trkpt>
      <trkpt lat="45.82374" lon="2.96313">
        <ele>980</ele>
        <time>2017-03-24T16:15:35Z</time>
      </trkpt>
      <trkpt lat="45.82298" lon="2.9632">
        <ele>977</ele>
        <time>2017-03-24T16:15:15Z</time>
      </trkpt>
      <trkpt lat="45.82258" lon="2.96298">
        <ele>976</ele>
        <time>2017-03-24T16:14:55Z</time>
      </trkpt>
      <trkpt lat="45.82044" lon="2.96249">
        <ele>967</ele>
        <time>2017-03-24T16:14:35Z</time>
      </trkpt>
      <trkpt lat="45.81829" lon="2.96094">
        <ele>962</ele>
        <time>2017-03-24T16:14:15Z</time>
      </trkpt>
      <trkpt lat="45.81766" lon="2.96026">
        <ele>958</ele>
        <time>2017-03-24T16:13:55Z</time>
      </trkpt>
      <trkpt lat="45.81426" lon="2.95811">
        <ele>956</ele>
        <time>2017-03-24T16:13:35Z</time>
      </trkpt>
      <trkpt lat="45.81409" lon="2.95532">
        <ele>958</ele>
        <time>2017-03-24T16:13:15Z</time>
      </trkpt>
      <trkpt lat="45.81461" lon="2.95363">
        <ele>954</ele>
        <time>2017-03-24T16:12:55Z</time>
      </trkpt>
      <trkpt lat="45.81437" lon="2.95328">
        <ele>958</ele>
        <time>2017-03-24T16:12:35Z</time>
      </trkpt>
      <trkpt lat="45.81376" lon="2.9524">
        <ele>960</ele>
        <time>2017-03-24T16:12:15Z</time>
      </trkpt>
      <trkpt lat="45.80568" lon="2.94245">
        <ele>932</ele>
        <time>2017-03-24T16:11:55Z</time>
      </trkpt>
      <trkpt lat="45.8046" lon="2.93841">
        <ele>938.9</ele>
        <time>2017-03-24T16:11:35Z</time>
      </trkpt>
      <trkpt lat="45.80278" lon="2.93484">
        <ele>959.6</ele>
        <time>2017-03-24T16:11:15Z</time>
      </trkpt>
      <trkpt lat="45.79856" lon="2.92976">
        <ele>971.4</ele>
        <time>2017-03-24T16:10:55Z</time>
      </trkpt>
      <trkpt lat="45.80143" lon="2.91359">
        <ele>904.7</ele>
        <time>2017-03-24T16:10:35Z</time>
      </trkpt>
      <trkpt lat="45.80965" lon="2.89798">
        <ele>830.9</ele>
        <time>2017-03-24T16:10:15Z</time>
      </trkpt>
      <trkpt lat="45.81441" lon="2.87056">
        <ele>788.8</ele>
        <time>2017-03-24T16:09:55Z</time>
      </trkpt>
      <trkpt lat="45.8145" lon="2.87039">
        <ele>788.8</ele>
        <time>2017-03-24T16:09:35Z</time>
      </trkpt>
      <trkpt lat="45.81449" lon="2.86881">
        <ele>787.5</ele>
        <time>2017-03-24T16:09:15Z</time>
      </trkpt>
      <trkpt lat="45.81543" lon="2.86836">
        <ele>788</ele>
        <time>2017-03-24T16:08:55Z</time>
      </trkpt>
      <trkpt lat="45.81546" lon="2.86711">
        <ele>783</ele>
        <time>2017-03-24T16:08:35Z</time>
      </trkpt>
      <trkpt lat="45.81528" lon="2.86654">
        <ele>781</ele>
        <time>2017-03-24T16:08:15Z</time>
      </trkpt>
      <trkpt lat="45.81524" lon="2.86576">
        <ele>782</ele>
        <time>2017-03-24T16:07:55Z</time>
      </trkpt>
      <trkpt lat="45.81509" lon="2.86502">
        <ele>782</ele>
        <time>2017-03-24T16:07:35Z</time>
      </trkpt>
      <trkpt lat="45.81552" lon="2.86548">
        <ele>781</ele>
        <time>2017-03-24T16:07:15Z</time>
      </trkpt>
      <trkpt lat="45.81657" lon="2.86565">
        <ele>780</ele>
        <time>2017-03-24T16:06:55Z</time>
      </trkpt>
      <trkpt lat="45.81746" lon="2.86548">
        <ele>779</ele>
        <time>2017-03-24T16:06:35Z</time>
      </trkpt>
      <trkpt lat="45.81785" lon="2.86483">
        <ele>778</ele>
        <time>2017-03-24T16:06:15Z</time>
      </trkpt>
      <trkpt lat="45.81845" lon="2.86427">
        <ele>776</ele>
        <time>2017-03-24T16:05:55Z</time>
      </trkpt>
      <trkpt lat="45.81889" lon="2.86441">
        <ele>777</ele>
        <time>2017-03-24T16:05:35Z</time>
      </trkpt>
      <trkpt lat="45.81963" lon="2.86572">
        <ele>772</ele>
        <time>2017-03-24T16:05:15Z</time>
      </trkpt>
      <trkpt lat="45.8196" lon="2.86611">
        <ele>772</ele>
        <time>2017-03-24T16:04:55Z</time>
      </trkpt>
      <trkpt lat="45.82014" lon="2.86631">
        <ele>771</ele>
        <time>2017-03-24T16:04:35Z</time>
      </trkpt>
      <trkpt lat="45.82093" lon="2.86691">
        <ele>771</ele>
        <time>2017-03-24T16:04:15Z</time>
      </trkpt>
      <trkpt lat="45.82139" lon="2.86656">
        <ele>770</ele>
        <time>2017-03-24T16:03:55Z</time>
      </trkpt>
      <trkpt lat="45.82179" lon="2.86594">
        <ele>768</ele>
        <time>2017-03-24T16:03:35Z</time>
      </trkpt>
      <trkpt lat="45.8225" lon="2.86568">
        <ele>766</ele>
        <time>2017-03-24T16:03:15Z</time>
      </trkpt>
      <trkpt lat="45.82331" lon="2.86587">
        <ele>755</ele>
        <time>2017-03-24T16:02:55Z</time>
      </trkpt>
      <trkpt lat="45.82375" lon="2.86557">
        <ele>754</ele>
        <time>2017-03-24T16:02:35Z</time>
      </trkpt>
      <trkpt lat="45.82449" lon="2.86565">
        <ele>753</ele>
        <time>2017-03-24T16:02:15Z</time>
      </trkpt>
      <trkpt lat="45.82514" lon="2.86683">
        <ele>750</ele>
        <time>2017-03-24T16:01:55Z</time>
      </trkpt>
      <trkpt lat="45.82543" lon="2.86694">
        <ele>750</ele>
        <time>2017-03-24T16:01:35Z</time>
      </trkpt>
      <trkpt lat="45.82586" lon="2.86668">
        <ele>751</ele>
        <time>2017-03-24T16:01:15Z</time>
      </trkpt>
      <trkpt lat="45.82618" lon="2.86672">
        <ele>750</ele>
        <time>2017-03-24T16:00:55Z</time>
      </trkpt>
      <trkpt lat="45.82678" lon="2.86631">
        <ele>747</ele>
        <time>2017-03-24T16:00:35Z</time>
      </trkpt>
      <trkpt lat="45.82767" lon="2.8648">
        <ele>752</ele>
        <time>2017-03-24T16:00:15Z</time>
      </trkpt>
      <trkpt lat="45.8284" lon="2.86485">
        <ele>751</ele>
        <time>2017-03-24T15:59:55Z</time>
      </trkpt>
      <trkpt lat="45.82865" lon="2.86437">
        <ele>750</ele>
        <time>2017-03-24T15:59:35Z</time>
      </trkpt>
      <trkpt lat="45.82992" lon="2.86404">
        <ele>744</ele>
        <time>2017-03-24T15:59:15Z</time>
      </trkpt>
      <trkpt lat="45.83032" lon="2.8636">
        <ele>742</ele>
        <time>2017-03-24T15:58:55Z</time>
      </trkpt>
      <trkpt lat="45.83088" lon="2.86329">
        <ele>738</ele>
        <time>2017-03-24T15:58:35Z</time>
      </trkpt>
      <trkpt lat="45.83096" lon="2.86254">
        <ele>737</ele>
        <time>2017-03-24T15:58:15Z</time>
      </trkpt>
      <trkpt lat="45.83158" lon="2.86135">
        <ele>731</ele>
        <time>2017-03-24T15:57:55Z</time>
      </trkpt>
      <trkpt lat="45.83199" lon="2.8611">
        <ele>727</ele>
        <time>2017-03-24T15:57:35Z</time>
      </trkpt>
      <trkpt lat="45.83232" lon="2.86066">
        <ele>723</ele>
        <time>2017-03-24T15:57:15Z</time>
      </trkpt>
      <trkpt lat="45.83269" lon="2.86042">
        <ele>721</ele>
        <time>2017-03-24T15:56:55Z</time>
      </trkpt>
      <trkpt lat="45.83289" lon="2.85996">
        <ele>719</ele>
        <time>2017-03-24T15:56:35Z</time>
      </trkpt>
      <trkpt lat="45.83319" lon="2.86059">
        <ele>722</ele>
        <time>2017-03-24T15:56:15Z</time>
      </trkpt>
      <trkpt lat="45.83367" lon="2.86055">
        <ele>723</ele>
        <time>2017-03-24T15:55:55Z</time>
      </trkpt>
      <trkpt lat="45.83366" lon="2.85917">
        <ele>719.8</ele>
        <time>2017-03-24T15:55:35Z</time>
      </trkpt>
      <trkpt lat="45.83302" lon="2.85636">
        <ele>707.8</ele>
        <time>2017-03-24T15:55:15Z</time>
      </trkpt>
      <trkpt lat="45.83214" lon="2.8528">
        <ele>689</ele>
        <time>2017-03-24T15:54:55Z</time>
      </trkpt>
      <trkpt lat="45.83214" lon="2.85194">
        <ele>679.5</ele>
        <time>2017-03-24T15:54:35Z</time>
      </trkpt>
      <trkpt lat="45.83222" lon="2.85133">
        <ele>674.3</ele>
        <time>2017-03-24T15:54:15Z</time>
      </trkpt>
      <trkpt lat="45.83249" lon="2.85077">
        <ele>671.7</ele>
        <time>2017-03-24T15:53:55Z</time>
      </trkpt>
      <trkpt lat="45.83309" lon="2.84986">
        <ele>669.9</ele>
        <time>2017-03-24T15:53:35Z</time>
      </trkpt>
    </trkseg>
  </trk>
</gpx>